createdAt,value
2023-04-15T00:02:22.470Z,4.18
2023-04-15T00:04:50.055Z,4.10
2023-04-15T00:07:18.064Z,3.65
2023-04-15T00:09:46.197Z,3.65
2023-04-15T00:12:13.799Z,4.50
2023-04-15T00:14:41.117Z,3.88
2023-04-15T00:17:08.739Z,3.65
2023-04-15T00:19:36.016Z,4.47
2023-04-15T00:22:03.629Z,4.43
2023-04-15T00:24:31.748Z,4.07
2023-04-15T00:27:00.024Z,3.70
2023-04-15T00:29:27.297Z,3.60
2023-04-15T00:31:54.851Z,2.70
2023-04-15T00:34:22.076Z,4.28
2023-04-15T00:36:51.777Z,3.53
2023-04-15T00:39:19.186Z,4.88
2023-04-15T00:41:47.050Z,4.50
2023-04-15T00:44:14.510Z,3.97
2023-04-15T00:46:44.339Z,3.65
2023-04-15T00:49:13.185Z,3.90
2023-04-15T00:51:40.746Z,4.20
2023-04-15T00:54:08.144Z,4.03
2023-04-15T00:56:39.997Z,4.25
2023-04-15T00:59:08.869Z,3.80
2023-04-15T01:01:37.490Z,4.93
2023-04-15T01:04:06.153Z,3.90
2023-04-15T01:06:34.209Z,4.93
2023-04-15T01:09:02.426Z,4.18
2023-04-15T01:11:34.438Z,4.55
2023-04-15T01:14:02.892Z,4.75
2023-04-15T01:16:31.703Z,3.67
2023-04-15T01:18:59.398Z,4.00
2023-04-15T01:21:27.280Z,4.22
2023-04-15T01:23:57.197Z,3.97
2023-04-15T01:26:25.461Z,5.28
2023-04-15T01:28:52.700Z,4.15
2023-04-15T01:31:20.389Z,3.97
2023-04-15T01:33:47.653Z,3.38
2023-04-15T01:36:15.166Z,3.88
2023-04-15T01:38:42.517Z,3.78
2023-04-15T01:41:10.228Z,3.35
2023-04-15T01:43:37.850Z,2.92
2023-04-15T01:46:06.367Z,2.55
2023-04-15T01:48:34.252Z,2.95
2023-04-15T01:51:02.424Z,3.03
2023-04-15T01:53:30.154Z,4.43
2023-04-15T01:55:57.832Z,5.97
2023-04-15T01:58:25.212Z,6.68
2023-04-15T02:00:52.842Z,9.20
2023-04-15T02:03:20.279Z,9.00
2023-04-15T02:05:47.998Z,7.93
2023-04-15T02:08:15.281Z,7.38
2023-04-15T02:10:42.901Z,6.70
2023-04-15T02:13:10.998Z,6.70
2023-04-15T02:15:38.583Z,5.85
2023-04-15T02:18:05.908Z,5.63
2023-04-15T02:20:33.596Z,5.63
2023-04-15T02:23:01.169Z,5.10
2023-04-15T02:25:28.717Z,4.78
2023-04-15T02:27:58.361Z,4.38
2023-04-15T02:30:26.212Z,4.05
2023-04-15T02:32:53.666Z,5.10
2023-04-15T02:35:21.553Z,4.47
2023-04-15T02:37:48.899Z,4.53
2023-04-15T02:40:16.431Z,4.00
2023-04-15T02:42:44.480Z,4.03
2023-04-15T02:45:12.994Z,3.65
2023-04-15T02:47:44.097Z,3.42
2023-04-15T02:50:13.673Z,3.25
2023-04-15T02:52:42.921Z,3.13
2023-04-15T02:55:10.847Z,3.15
2023-04-15T02:57:39.341Z,3.30
2023-04-15T03:00:09.783Z,2.92
2023-04-15T03:02:41.156Z,3.53
2023-04-15T03:05:14.278Z,2.92
2023-04-15T03:07:41.709Z,3.03
2023-04-15T03:10:10.521Z,2.38
2023-04-15T03:12:37.823Z,3.47
2023-04-15T03:15:06.636Z,3.22
2023-04-15T03:17:33.986Z,3.33
2023-04-15T03:20:05.281Z,3.85
2023-04-15T03:22:33.650Z,3.90
2023-04-15T03:25:01.860Z,4.70
2023-04-15T03:27:29.164Z,5.05
2023-04-15T03:29:56.974Z,4.43
2023-04-15T03:32:24.549Z,4.03
2023-04-15T03:34:52.172Z,3.60
2023-04-15T03:37:19.529Z,3.85
2023-04-15T03:39:47.323Z,3.13
2023-04-15T03:42:14.594Z,3.47
2023-04-15T03:44:42.332Z,3.55
2023-04-15T03:47:09.591Z,3.85
2023-04-15T03:49:37.716Z,3.58
2023-04-15T03:52:05.118Z,3.70
2023-04-15T03:54:32.781Z,4.18
2023-04-15T03:57:00.028Z,4.43
2023-04-15T03:59:27.653Z,5.15
2023-04-15T04:01:54.927Z,5.57
2023-04-15T04:04:22.686Z,7.38
2023-04-15T04:06:49.994Z,8.95
2023-04-15T04:09:17.493Z,9.82
2023-04-15T04:11:45.725Z,12.55
2023-04-15T04:14:13.274Z,12.38
2023-04-15T04:16:40.772Z,9.15
2023-04-15T04:19:08.679Z,8.38
2023-04-15T04:21:36.651Z,7.60
2023-04-15T04:24:04.248Z,5.88
2023-04-15T04:26:31.465Z,5.40
2023-04-15T04:28:59.134Z,5.22
2023-04-15T04:31:27.345Z,4.82
2023-04-15T04:33:54.881Z,5.80
2023-04-15T04:36:22.266Z,5.07
2023-04-15T04:38:49.857Z,5.85
2023-04-15T04:41:17.808Z,4.68
2023-04-15T04:43:45.388Z,4.30
2023-04-15T04:46:12.985Z,4.32
2023-04-15T04:48:40.721Z,3.67
2023-04-15T04:51:08.302Z,4.70
2023-04-15T04:53:37.769Z,5.47
2023-04-15T04:56:05.317Z,5.70
2023-04-15T04:58:32.852Z,4.72
2023-04-15T05:01:00.366Z,5.72
2023-04-15T05:03:28.146Z,5.53
2023-04-15T05:05:55.547Z,5.13
2023-04-15T05:08:23.105Z,6.53
2023-04-15T05:10:50.510Z,6.05
2023-04-15T05:13:18.108Z,5.47
2023-04-15T05:15:45.581Z,6.22
2023-04-15T05:18:13.324Z,6.70
2023-04-15T05:20:40.724Z,6.65
2023-04-15T05:23:08.425Z,7.20
2023-04-15T05:25:35.806Z,7.70
2023-04-15T05:28:03.425Z,7.50
2023-04-15T05:30:30.836Z,8.57
2023-04-15T05:32:58.487Z,8.35
2023-04-15T05:35:25.842Z,6.82
2023-04-15T05:37:53.434Z,6.97
2023-04-15T05:40:20.860Z,6.45
2023-04-15T05:42:48.536Z,7.55
2023-04-15T05:45:15.813Z,7.65
2023-04-15T05:47:43.533Z,6.68
2023-04-15T05:50:11.286Z,7.28
2023-04-15T05:52:39.046Z,7.80
2023-04-15T05:55:07.013Z,7.65
2023-04-15T05:57:34.583Z,5.90
2023-04-15T06:00:01.854Z,6.13
2023-04-15T06:02:29.459Z,7.00
2023-04-15T06:04:57.929Z,7.82
2023-04-15T06:07:25.667Z,7.82
2023-04-15T06:09:53.015Z,6.45
2023-04-15T06:12:21.547Z,7.63
2023-04-15T06:14:48.943Z,15.30
2023-04-15T06:17:18.551Z,12.13
2023-04-15T06:19:46.017Z,16.42
2023-04-15T06:22:13.935Z,12.73
2023-04-15T06:24:41.588Z,14.20
2023-04-15T06:27:09.807Z,11.82
2023-04-15T06:29:37.593Z,11.27
2023-04-15T06:32:05.426Z,7.03
2023-04-15T06:34:32.692Z,9.85
2023-04-15T06:37:01.968Z,13.30
2023-04-15T06:39:29.939Z,7.28
2023-04-15T06:41:57.654Z,9.48
2023-04-15T06:44:24.964Z,6.43
2023-04-15T06:46:52.538Z,5.63
2023-04-15T06:49:19.804Z,6.20
2023-04-15T06:51:47.351Z,5.07
2023-04-15T06:54:14.724Z,4.07
2023-04-15T06:56:43.311Z,6.35
2023-04-15T06:59:10.676Z,5.22
2023-04-15T07:01:38.347Z,4.35
2023-04-15T07:04:06.355Z,4.50
2023-04-15T07:06:33.962Z,5.90
2023-04-15T07:09:03.566Z,5.45
2023-04-15T07:11:31.754Z,5.35
2023-04-15T07:13:59.284Z,9.73
2023-04-15T07:16:28.584Z,11.18
2023-04-15T07:18:57.291Z,9.57
2023-04-15T07:21:25.902Z,6.38
2023-04-15T07:23:53.394Z,4.50
2023-04-15T07:26:21.032Z,4.28
2023-04-15T07:28:49.287Z,4.28
2023-04-15T07:31:17.611Z,7.72
2023-04-15T07:33:45.271Z,6.68
2023-04-15T07:36:13.330Z,8.60
2023-04-15T07:38:40.718Z,9.25
2023-04-15T07:41:08.260Z,6.25
2023-04-15T07:43:35.541Z,5.90
2023-04-15T07:46:03.109Z,4.78
2023-04-15T07:48:30.828Z,2.72
2023-04-15T07:50:59.582Z,2.70
2023-04-15T07:53:27.143Z,2.50
2023-04-15T07:55:54.717Z,3.38
2023-04-15T07:58:21.991Z,2.60
2023-04-15T08:00:49.519Z,1.20
2023-04-15T08:03:16.896Z,1.50
2023-04-15T08:05:45.642Z,1.42
2023-04-15T08:08:13.021Z,1.40
2023-04-15T08:10:41.087Z,1.40
2023-04-15T08:13:08.488Z,1.60
2023-04-15T08:15:36.113Z,1.42
2023-04-15T08:18:03.564Z,1.10
2023-04-15T08:20:31.137Z,0.82
2023-04-15T08:22:58.397Z,0.60
2023-04-15T08:25:25.953Z,0.80
2023-04-15T08:27:55.789Z,0.88
2023-04-15T08:30:23.855Z,0.70
2023-04-15T08:32:51.440Z,0.75
2023-04-15T08:35:19.084Z,0.82
2023-04-15T08:37:46.378Z,0.70
2023-04-15T08:40:14.340Z,0.43
2023-04-15T08:42:49.237Z,0.55
2023-04-15T08:45:18.779Z,0.60
2023-04-15T08:47:49.331Z,0.60
2023-04-15T08:50:18.403Z,0.85
2023-04-15T08:52:45.761Z,0.45
2023-04-15T08:55:16.240Z,0.57
2023-04-15T08:57:43.911Z,0.50
2023-04-15T09:00:12.578Z,0.50
2023-04-15T09:02:41.411Z,0.50
2023-04-15T09:05:09.507Z,0.50
2023-04-15T09:07:36.901Z,0.60
2023-04-15T09:10:05.538Z,0.50
2023-04-15T09:12:36.983Z,0.47
2023-04-15T09:15:05.272Z,0.47
2023-04-15T09:17:34.727Z,0.40
2023-04-15T09:20:11.132Z,0.60
2023-04-15T09:22:40.862Z,0.90
2023-04-15T09:25:31.081Z,1.13
2023-04-15T09:28:02.412Z,0.70
2023-04-15T09:30:30.663Z,0.88
2023-04-15T09:33:02.539Z,0.70
2023-04-15T09:35:30.195Z,2.08
2023-04-15T09:38:07.628Z,1.25
2023-04-15T09:40:42.324Z,1.55
2023-04-15T09:43:13.142Z,1.80
2023-04-15T09:45:52.757Z,1.48
2023-04-15T09:48:31.196Z,0.90
2023-04-15T09:51:00.655Z,1.95
2023-04-15T09:53:31.764Z,1.60
2023-04-15T09:56:02.658Z,2.00
2023-04-15T09:58:35.182Z,4.57
2023-04-15T10:01:06.510Z,3.72
2023-04-15T10:03:38.060Z,1.13
2023-04-15T10:06:06.378Z,1.42
2023-04-15T10:08:35.177Z,1.45
2023-04-15T10:11:05.148Z,0.80
2023-04-15T10:13:35.124Z,4.38
2023-04-15T10:16:10.964Z,1.50
2023-04-15T10:18:47.046Z,2.17
2023-04-15T10:21:18.635Z,1.80
2023-04-15T10:23:47.372Z,1.40
2023-04-15T10:26:17.795Z,1.30
2023-04-15T10:28:47.379Z,2.30
2023-04-15T10:31:17.149Z,1.40
2023-04-15T10:33:46.263Z,1.40
2023-04-15T10:36:15.485Z,1.75
2023-04-15T10:38:45.906Z,1.63
2023-04-15T10:41:17.829Z,1.67
2023-04-15T10:44:09.727Z,2.22
2023-04-15T10:46:41.800Z,1.30
2023-04-15T10:49:26.248Z,2.78
2023-04-15T10:51:59.817Z,3.83
2023-04-15T10:54:27.446Z,2.50
2023-04-15T10:57:04.044Z,2.42
2023-04-15T10:59:32.062Z,6.60
2023-04-15T11:02:09.190Z,1.20
2023-04-15T11:05:00.234Z,1.60
2023-04-15T11:07:42.598Z,2.08
2023-04-15T11:10:19.150Z,1.67
2023-04-15T11:12:51.346Z,1.33
2023-04-15T11:15:41.112Z,1.50
2023-04-15T11:18:15.550Z,1.23
2023-04-15T11:20:55.059Z,1.15
2023-04-15T11:23:30.241Z,1.00
2023-04-15T11:26:00.051Z,1.17
2023-04-15T11:28:31.504Z,1.20
2023-04-15T11:31:07.181Z,1.40
2023-04-15T11:33:34.840Z,1.10
2023-04-15T11:36:04.339Z,1.00
2023-04-15T11:38:32.568Z,1.27
2023-04-15T11:41:00.005Z,1.10
2023-04-15T11:43:27.748Z,1.17
2023-04-15T11:46:01.536Z,1.13
2023-04-15T11:48:33.061Z,1.40
2023-04-15T11:51:04.416Z,1.58
2023-04-15T11:53:47.608Z,1.40
2023-04-15T11:56:24.069Z,1.88
2023-04-15T11:58:59.464Z,1.45
2023-04-15T12:01:39.501Z,1.40
2023-04-15T12:04:25.362Z,1.52
2023-04-15T12:06:53.337Z,1.50
2023-04-15T12:09:21.919Z,1.80
2023-04-15T12:11:54.220Z,1.67
2023-04-15T12:14:33.270Z,1.52
2023-04-15T12:17:03.770Z,1.25
2023-04-15T12:19:41.781Z,1.50
2023-04-15T12:22:18.343Z,1.52
2023-04-15T12:24:48.309Z,1.50
2023-04-15T12:27:17.531Z,1.08
2023-04-15T12:29:45.447Z,1.80
2023-04-15T12:32:19.885Z,1.50
2023-04-15T12:34:52.803Z,1.80
2023-04-15T12:37:20.783Z,1.48
2023-04-15T12:39:50.196Z,1.40
2023-04-15T12:42:18.825Z,1.20
2023-04-15T12:44:47.385Z,1.50
2023-04-15T12:47:15.142Z,1.40
2023-04-15T12:49:42.816Z,1.63
2023-04-15T12:52:10.194Z,1.85
2023-04-15T12:54:37.840Z,2.00
2023-04-15T12:57:07.305Z,2.15
2023-04-15T12:59:36.121Z,2.00
2023-04-15T13:02:04.338Z,1.73
2023-04-15T13:04:32.339Z,2.15
2023-04-15T13:06:59.820Z,1.90
2023-04-15T13:09:27.422Z,2.20
2023-04-15T13:11:54.991Z,1.90
2023-04-15T13:14:22.676Z,2.50
2023-04-15T13:16:50.021Z,2.63
2023-04-15T13:19:17.754Z,2.50
2023-04-15T13:21:45.082Z,2.13
2023-04-15T13:24:12.619Z,1.80
2023-04-15T13:26:39.952Z,1.80
2023-04-15T13:29:07.628Z,2.45
2023-04-15T13:31:34.937Z,2.40
2023-04-15T13:34:02.784Z,1.90
2023-04-15T13:36:30.749Z,2.53
2023-04-15T13:38:58.584Z,1.88
2023-04-15T13:41:25.998Z,1.95
2023-04-15T13:43:53.499Z,1.98
2023-04-15T13:46:20.908Z,2.20
2023-04-15T13:48:48.496Z,1.95
2023-04-15T13:51:15.830Z,1.88
2023-04-15T13:53:43.405Z,2.20
2023-04-15T13:56:10.906Z,2.08
2023-04-15T13:58:41.623Z,1.73
2023-04-15T14:01:09.165Z,1.83
2023-04-15T14:03:37.320Z,1.73
2023-04-15T14:06:08.678Z,1.73
2023-04-15T14:08:36.363Z,2.00
2023-04-15T14:11:03.950Z,2.20
2023-04-15T14:13:31.511Z,1.80
2023-04-15T14:15:58.857Z,2.90
2023-04-15T14:18:26.537Z,2.30
2023-04-15T14:20:53.939Z,2.05
2023-04-15T14:23:21.976Z,2.20
2023-04-15T14:25:51.728Z,2.47
2023-04-15T14:28:19.417Z,1.95
2023-04-15T14:30:46.834Z,1.90
2023-04-15T14:33:14.540Z,5.90
2023-04-15T14:35:42.054Z,5.93
2023-04-15T14:38:11.481Z,2.25
2023-04-15T14:40:41.320Z,1.90
2023-04-15T14:43:09.064Z,2.10
2023-04-15T14:45:39.546Z,3.78
2023-04-15T14:48:10.486Z,2.92
2023-04-15T14:50:37.873Z,2.70
2023-04-15T14:53:05.531Z,2.30
2023-04-15T14:55:33.512Z,6.18
2023-04-15T14:58:02.489Z,6.22
2023-04-15T15:00:30.037Z,8.93
2023-04-15T15:02:58.634Z,4.88
2023-04-15T15:05:26.059Z,2.72
2023-04-15T15:07:53.802Z,3.90
2023-04-15T15:10:47.949Z,4.43
2023-04-15T15:13:10.785Z,4.00
2023-04-15T15:15:39.242Z,4.78
2023-04-15T15:18:07.083Z,3.17
2023-04-15T15:20:35.509Z,2.40
2023-04-15T15:23:03.240Z,2.25
2023-04-15T15:25:30.518Z,1.55
2023-04-15T15:27:58.172Z,1.77
2023-04-15T15:30:25.673Z,2.40
2023-04-15T15:32:53.368Z,2.22
2023-04-15T15:35:22.942Z,3.08
2023-04-15T15:37:51.341Z,3.38
2023-04-15T15:40:18.726Z,3.10
2023-04-15T15:42:49.938Z,2.60
2023-04-15T15:45:17.838Z,5.53
2023-04-15T15:47:45.467Z,6.05
2023-04-15T15:50:14.326Z,5.10
2023-04-15T15:52:42.120Z,3.58
2023-04-15T15:55:09.670Z,3.40
2023-04-15T15:57:39.098Z,4.00
2023-04-15T16:00:12.425Z,3.65
2023-04-15T16:03:05.284Z,4.30
2023-04-15T16:05:28.209Z,4.32
2023-04-15T16:07:55.831Z,4.00
2023-04-15T16:10:23.111Z,4.88
2023-04-15T16:12:50.783Z,5.00
2023-04-15T16:15:18.143Z,5.43
2023-04-15T16:17:46.002Z,5.68
2023-04-15T16:20:13.663Z,7.40
2023-04-15T16:22:41.453Z,7.88
2023-04-15T16:25:09.314Z,7.78
2023-04-15T16:27:54.095Z,7.70
2023-04-15T16:30:25.009Z,7.47
2023-04-15T16:32:53.546Z,8.38
2023-04-15T16:35:21.062Z,10.15
2023-04-15T16:37:48.659Z,7.53
2023-04-15T16:40:16.365Z,7.80
2023-04-15T16:42:44.144Z,7.40
2023-04-15T16:45:11.752Z,9.85
2023-04-15T16:47:39.725Z,9.63
2023-04-15T16:50:08.157Z,8.50
2023-04-15T16:52:36.668Z,7.07
2023-04-15T16:55:05.322Z,5.82
2023-04-15T16:58:00.415Z,5.50
2023-04-15T17:00:20.988Z,4.90
2023-04-15T17:02:48.802Z,5.20
2023-04-15T17:05:16.377Z,5.20
2023-04-15T17:07:44.025Z,5.47
2023-04-15T17:10:13.866Z,6.07
2023-04-15T17:12:41.438Z,6.30
2023-04-15T17:15:09.629Z,5.07
2023-04-15T17:17:37.177Z,5.35
2023-04-15T17:20:05.454Z,5.15
2023-04-15T17:22:33.666Z,6.72
2023-04-15T17:25:01.089Z,7.55
2023-04-15T17:27:29.977Z,6.55
2023-04-15T17:29:57.603Z,6.85
2023-04-15T17:32:31.858Z,6.28
2023-04-15T17:34:59.431Z,7.18
2023-04-15T17:37:27.021Z,7.85
2023-04-15T17:39:54.398Z,7.68
2023-04-15T17:42:23.035Z,5.75
2023-04-15T17:44:50.313Z,5.45
2023-04-15T17:47:18.087Z,4.50
2023-04-15T17:49:45.540Z,6.35
2023-04-15T17:52:14.061Z,6.25
2023-04-15T17:54:41.413Z,6.57
2023-04-15T17:57:09.708Z,7.00
2023-04-15T17:59:37.225Z,9.23
2023-04-15T18:02:04.998Z,7.50
2023-04-15T18:04:32.548Z,5.80
2023-04-15T18:07:00.338Z,5.57
2023-04-15T18:09:28.122Z,5.35
2023-04-15T18:11:57.422Z,4.82
2023-04-15T18:14:34.115Z,4.63
2023-04-15T18:17:03.402Z,6.22
2023-04-15T18:19:31.857Z,7.20
2023-04-15T18:22:03.431Z,7.38
2023-04-15T18:24:30.950Z,10.00
2023-04-15T18:26:59.275Z,10.57
2023-04-15T18:29:26.726Z,9.73
2023-04-15T18:31:54.798Z,9.20
2023-04-15T18:34:22.219Z,7.80
2023-04-15T18:36:49.874Z,9.40
2023-04-15T18:39:17.332Z,9.50
2023-04-15T18:41:45.714Z,14.20
2023-04-15T18:44:13.169Z,11.55
2023-04-15T18:46:40.974Z,11.40
2023-04-15T18:49:08.361Z,9.73
2023-04-15T18:51:36.312Z,11.20
2023-04-15T18:54:03.686Z,12.70
2023-04-15T18:56:31.727Z,11.68
2023-04-15T18:59:10.061Z,13.23
2023-04-15T19:01:46.780Z,12.77
2023-04-15T19:04:14.508Z,15.55
2023-04-15T19:06:42.246Z,16.08
2023-04-15T19:09:09.591Z,19.95
2023-04-15T19:11:37.226Z,17.95
2023-04-15T19:14:04.781Z,16.10
2023-04-15T19:16:32.489Z,17.92
2023-04-15T19:18:59.853Z,16.65
2023-04-15T19:21:28.788Z,14.25
2023-04-15T19:23:57.887Z,14.13
2023-04-15T19:26:25.629Z,12.43
2023-04-15T19:28:58.921Z,14.27
2023-04-15T19:31:26.714Z,11.85
2023-04-15T19:33:54.078Z,10.25
2023-04-15T19:36:21.724Z,15.00
2023-04-15T19:38:49.043Z,16.70
2023-04-15T19:41:16.697Z,14.30
2023-04-15T19:43:44.020Z,13.30
2023-04-15T19:46:13.461Z,11.93
2023-04-15T19:48:40.995Z,10.77
2023-04-15T19:51:08.917Z,12.43
2023-04-15T19:53:36.509Z,12.18
2023-04-15T19:56:04.125Z,12.27
2023-04-15T19:58:32.713Z,10.35
2023-04-15T20:01:01.476Z,11.57
2023-04-15T20:03:28.966Z,11.90
2023-04-15T20:05:56.636Z,14.23
2023-04-15T20:08:24.057Z,12.35
2023-04-15T20:10:51.950Z,11.73
2023-04-15T20:13:19.312Z,12.52
2023-04-15T20:15:47.528Z,12.70
2023-04-15T20:18:14.960Z,15.35
2023-04-15T20:20:42.637Z,18.90
2023-04-15T20:23:10.079Z,16.73
2023-04-15T20:25:37.849Z,18.83
2023-04-15T20:28:05.163Z,18.05
2023-04-15T20:30:33.022Z,16.83
2023-04-15T20:33:00.763Z,19.45
2023-04-15T20:35:31.081Z,16.63
2023-04-15T20:37:58.877Z,17.98
2023-04-15T20:40:27.262Z,17.10
2023-04-15T20:42:54.543Z,15.07
2023-04-15T20:45:22.359Z,15.93
2023-04-15T20:47:49.854Z,16.13
2023-04-15T20:50:17.758Z,13.48
2023-04-15T20:52:45.045Z,11.80
2023-04-15T20:55:12.834Z,12.93
2023-04-15T20:57:40.525Z,13.32
2023-04-15T21:00:10.961Z,11.95
2023-04-15T21:02:38.810Z,16.67
2023-04-15T21:05:07.837Z,15.50
2023-04-15T21:07:35.391Z,17.10
2023-04-15T21:10:03.182Z,20.25
2023-04-15T21:12:30.686Z,17.52
2023-04-15T21:14:58.358Z,19.95
2023-04-15T21:17:25.822Z,16.88
2023-04-15T21:19:53.431Z,17.83
2023-04-15T21:22:20.759Z,19.90
2023-04-15T21:24:49.175Z,21.92
2023-04-15T21:27:16.567Z,24.05
2023-04-15T21:29:44.283Z,26.98
2023-04-15T21:32:12.341Z,24.80
2023-04-15T21:34:40.049Z,28.17
2023-04-15T21:37:07.874Z,29.50
2023-04-15T21:39:35.536Z,27.05
2023-04-15T21:42:02.990Z,24.45
2023-04-15T21:44:31.426Z,26.15
2023-04-15T21:46:59.240Z,26.73
2023-04-15T21:49:26.956Z,28.38
2023-04-15T21:51:54.234Z,26.95
2023-04-15T21:54:21.818Z,26.35
2023-04-15T21:56:50.182Z,26.67
2023-04-15T21:59:17.876Z,24.88
2023-04-15T22:01:45.708Z,25.17
2023-04-15T22:04:13.638Z,24.90
2023-04-15T22:06:41.013Z,25.58
2023-04-15T22:09:08.618Z,25.00
2023-04-15T22:11:36.040Z,23.77
2023-04-15T22:14:03.840Z,25.77
2023-04-15T22:16:31.274Z,24.83
2023-04-15T22:18:58.957Z,24.58
2023-04-15T22:21:26.864Z,23.38
2023-04-15T22:24:38.341Z,22.92
2023-04-15T22:26:41.860Z,20.52
2023-04-15T22:29:10.133Z,21.10
2023-04-15T22:31:37.431Z,18.83
2023-04-15T22:34:05.073Z,18.45
2023-04-15T22:36:32.378Z,19.52
2023-04-15T22:38:59.938Z,19.45
2023-04-15T22:41:27.411Z,20.58
2023-04-15T22:43:54.874Z,16.98
2023-04-15T22:46:22.191Z,19.42
2023-04-15T22:48:49.895Z,18.75
2023-04-15T22:51:28.019Z,19.55
2023-04-15T22:53:56.563Z,18.73
2023-04-15T22:56:24.108Z,18.98
2023-04-15T22:58:51.820Z,19.50
2023-04-15T23:01:20.805Z,17.95
2023-04-15T23:03:56.188Z,18.15
2023-04-15T23:06:27.201Z,16.55
2023-04-15T23:08:54.976Z,15.20
2023-04-15T23:11:22.274Z,15.27
2023-04-15T23:13:50.780Z,16.95
2023-04-15T23:16:18.144Z,15.70
2023-04-15T23:18:45.701Z,13.35
2023-04-15T23:21:12.881Z,13.32
2023-04-15T23:23:40.541Z,14.70
2023-04-15T23:26:07.787Z,17.67
2023-04-15T23:28:35.340Z,19.08
2023-04-15T23:31:02.714Z,18.65
2023-04-15T23:33:30.509Z,19.35
2023-04-15T23:35:57.805Z,16.48
2023-04-15T23:38:25.399Z,16.80
2023-04-15T23:40:52.828Z,18.45
2023-04-15T23:43:20.391Z,18.20
2023-04-15T23:45:48.000Z,18.20
2023-04-15T23:48:15.550Z,17.50
2023-04-15T23:50:42.884Z,17.27
2023-04-15T23:53:10.481Z,17.08
2023-04-15T23:55:37.671Z,15.82
2023-04-15T23:58:05.220Z,23.05
